Airfield :
LOGIN :

Register | Disclaimer

   EN    FR    IT 

 










Legend :    VFR   Marginal VFR   IFR   Intensive IFR   Very Intensive IFR
Visi :
Ceiling :
>= 8 km
>= 3000ft
5 to 8 km
1000 to 3000 ft
1500m to 5 km
500 to 1000 ft
800 to 1500m
200 to 500 ft
< 800m
< 200 ft
Symbols :   Thunderstorms  Fog  Heavy snow  Heavy precipitations  Wind > 20 kt
SIGMETs :     Misc.  Thunderstorms  Icing  Turbulence  Mountain Waves  Volcanic Ashes







- Airport Elevation : 129 ft
- IATA code : ZCN


ETHC - Celle

CURRENT METAR :
  • 191120Z 25012KT 9999 FEW015 BKN017 BKN055 20/14 Q1022 WHT BLU TEMPO GRN

EXPIRED METARs :
  • 191020Z 25010KT 9999 -DZ FEW022 BKN024 20/14 Q1022 WHT BLU TEMPO GRN
  • 190920Z 25010KT 9999 SCT020 BKN065 20/14 Q1021 BLU BLU TEMPO WHT

TAF TAF ETHC
Valid from the 19 at 11:00 until the 19 at 20:00 UTC


191019Z 1911/1920 25010KT 9999 NSW SCT020 BKN030
TEMPO 1911/1914 26012KT 4000 -DZRA BKN012 BKN020
TEMPO 1914/1920 27008KT 8000 NSW BKN020 BKN030
No reported NOTAMs for that airfield.



MET'MAP, your aeronautical weather chart ! - Copyright ORBIFLY December 2007 - Disclaimer

ORBIFLY MET'MAP TEAM :

Programming & Development : Alexandra Zaïnal
Concept & Development : Baudouin d'Aumeries
Co-Development & Prog : Marc-Olivier Méhu
Technical & hardware support : Manuel Goepfert

Contact : metmap@orbifly.com




SOURCES & CREDITS :

   NOAA